Time;durP1;ratioP1;P1;durP2;ratioP2;P2;SDS_P1;SDS_P2;PMS_P1;PMS_P2;Temp;Humidity;BMP_temperature;BMP_pressure;BME280_temperature;BME280_humidity;BME280_pressure;Samples;Min_cycle;Max_cycle;Signal;HPM_P1;HPM_P2
2022/01/27 00:06:03;;;;;;;;;24.25;15.50;;;;;3.67;70.92;102512.94;4983517;28;45546;-81
2022/01/27 00:08:38;;;;;;;;;32.50;30.25;;;;;3.66;70.44;102513.81;4981225;28;46154;-82
2022/01/27 00:11:10;;;;;;;;;40.50;33.25;;;;;3.68;70.26;102513.88;4977644;28;45580;-83
2022/01/27 00:13:44;;;;;;;;;30.75;27.00;;;;;3.70;70.82;102509.56;4975147;28;45558;-83
2022/01/27 00:16:19;;;;;;;;;30.50;29.50;;;;;3.71;70.40;102507.00;4975398;28;45361;-81
2022/01/27 00:18:48;;;;;;;;;42.00;36.00;;;;;3.64;70.64;102491.91;4972607;28;45530;-82
2022/01/27 00:21:17;;;;;;;;;38.25;26.50;;;;;3.72;70.74;102506.19;4965194;28;45403;-81
2022/01/27 00:23:45;;;;;;;;;38.50;30.00;;;;;3.74;70.10;102504.50;4975775;28;45588;-81
2022/01/27 00:26:11;;;;;;;;;32.25;27.25;;;;;3.74;70.13;102501.91;4977058;28;45473;-82
2022/01/27 00:28:39;;;;;;;;;39.75;30.75;;;;;3.80;70.72;102497.75;4994931;28;45372;-81
2022/01/27 00:31:04;;;;;;;;;36.00;28.50;;;;;3.81;70.61;102499.53;4989345;28;45494;-82
2022/01/27 00:33:29;;;;;;;;;28.00;26.00;;;;;3.82;70.56;102490.84;4979406;28;45437;-82
2022/01/27 00:35:55;;;;;;;;;38.25;31.25;;;;;3.77;70.60;102482.81;5002902;28;45403;-82
2022/01/27 00:38:20;;;;;;;;;38.50;29.00;;;;;3.85;70.62;102496.19;5033797;28;45489;-83
2022/01/27 00:40:46;;;;;;;;;36.00;28.25;;;;;3.86;70.35;102484.91;5032869;28;45414;-83
2022/01/27 00:43:11;;;;;;;;;33.75;29.75;;;;;3.84;69.85;102483.94;5016181;28;45744;-83
2022/01/27 00:45:37;;;;;;;;;34.00;21.75;;;;;3.81;69.99;102478.59;5015982;28;45526;-82
2022/01/27 00:48:04;;;;;;;;;35.75;30.00;;;;;3.81;70.32;102483.81;5030163;28;45382;-82
2022/01/27 00:50:32;;;;;;;;;42.75;32.00;;;;;3.80;70.26;102468.97;5033589;28;45261;-82
2022/01/27 00:53:00;;;;;;;;;40.00;30.00;;;;;3.80;70.02;102476.84;5017906;28;45387;-81
2022/01/27 00:55:28;;;;;;;;;33.50;17.00;;;;;3.77;70.67;102458.41;5018247;28;45363;-81
2022/01/27 01:00:30;;;;;;;;;35.50;28.25;;;;;3.71;70.94;102452.09;4967236;28;1391727;-81
2022/01/27 01:03:03;;;;;;;;;31.00;29.50;;;;;3.72;70.18;102461.72;5016558;28;45404;-82
2022/01/27 01:08:52;;;;;;;;;35.25;30.00;;;;;3.69;70.90;102458.09;5025041;28;45295;-81
2022/01/27 01:16:12;;;;;;;;;35.00;28.50;;;;;3.58;71.50;102446.34;5016639;28;45474;-82
2022/01/27 01:19:00;;;;;;;;;37.75;37.75;;;;;3.42;71.92;102426.56;5017096;28;45494;-81
2022/01/27 01:32:19;;;;;;;;;50.25;37.00;;;;;3.46;73.14;102445.03;4942013;28;45504;-81
2022/01/27 01:34:47;;;;;;;;;33.50;23.00;;;;;3.41;73.23;102435.22;4948974;28;45546;-82
2022/01/27 01:37:17;;;;;;;;;57.75;41.75;;;;;3.47;72.95;102443.31;4962012;28;45510;-81
2022/01/27 01:39:44;;;;;;;;;34.50;32.00;;;;;3.44;72.75;102431.00;4949833;28;45465;-82
2022/01/27 01:42:10;;;;;;;;;42.50;36.50;;;;;3.48;73.35;102437.25;4936764;28;45451;-82
2022/01/27 01:44:36;;;;;;;;;54.00;45.75;;;;;3.47;73.44;102435.47;4945406;28;45506;-82
2022/01/27 01:47:04;;;;;;;;;46.00;39.25;;;;;3.50;73.23;102435.56;4955518;28;45490;-83
2022/01/27 01:49:30;;;;;;;;;52.75;41.00;;;;;3.49;72.83;102432.09;4957138;28;45399;-83
2022/01/27 01:51:57;;;;;;;;;46.25;40.00;;;;;3.43;72.96;102430.94;4956171;28;45900;-82
2022/01/27 01:54:23;;;;;;;;;57.25;45.00;;;;;3.47;73.47;102440.69;4947819;28;45406;-83
2022/01/27 01:56:49;;;;;;;;;50.00;39.25;;;;;3.47;73.93;102438.06;4936721;28;45422;-82
2022/01/27 01:59:15;;;;;;;;;48.00;37.75;;;;;3.45;72.98;102427.56;4942515;28;46493;-82
2022/01/27 02:01:41;;;;;;;;;46.25;38.00;;;;;3.43;73.72;102418.78;4935323;28;45484;-82
2022/01/27 02:04:10;;;;;;;;;45.75;33.50;;;;;3.40;74.02;102418.63;4982965;28;45448;-81
2022/01/27 02:06:44;;;;;;;;;47.75;38.00;;;;;3.38;73.81;102410.72;5020789;28;45469;-81
2022/01/27 02:19:58;;;;;;;;;48.75;38.25;;;;;3.25;74.63;102408.50;5014135;28;45421;-81
2022/01/27 02:22:24;;;;;;;;;53.25;43.00;;;;;3.24;74.17;102401.47;5016213;28;45476;-82
2022/01/27 02:24:50;;;;;;;;;47.25;39.75;;;;;3.21;74.97;102398.75;5016568;28;45442;-81
2022/01/27 02:27:18;;;;;;;;;51.50;40.50;;;;;3.16;74.89;102392.44;5016281;28;45471;-82
2022/01/27 02:29:44;;;;;;;;;46.50;34.50;;;;;3.15;74.36;102395.88;4996360;28;46273;-81
2022/01/27 02:32:11;;;;;;;;;47.75;43.00;;;;;3.11;75.37;102386.13;4996089;28;45519;-80
2022/01/27 02:34:37;;;;;;;;;60.25;43.25;;;;;3.11;75.42;102393.97;5004561;28;45581;-80
2022/01/27 02:37:03;;;;;;;;;21.00;21.00;;;;;3.09;74.36;102377.34;5020640;28;45260;-81
2022/01/27 02:39:29;;;;;;;;;44.25;34.50;;;;;3.14;75.44;102388.88;5004707;28;45443;-82
2022/01/27 02:41:54;;;;;;;;;62.75;47.50;;;;;3.15;74.81;102385.44;5013420;28;45412;-83
2022/01/27 02:44:27;;;;;;;;;46.00;39.00;;;;;3.14;74.72;102383.63;5002598;28;45339;-82
2022/01/27 02:46:52;;;;;;;;;52.00;46.75;;;;;3.19;75.22;102376.88;5027615;28;45278;-82
2022/01/27 02:49:19;;;;;;;;;52.75;44.00;;;;;3.18;75.03;102375.09;5003605;28;45354;-82
2022/01/27 02:51:44;;;;;;;;;44.25;33.50;;;;;3.16;74.63;102371.53;4994384;28;45479;-82
2022/01/27 02:54:10;;;;;;;;;67.00;48.00;;;;;3.18;74.51;102368.13;5003880;28;45394;-81
2022/01/27 02:56:42;;;;;;;;;50.00;34.00;;;;;3.18;74.57;102377.72;5036606;28;45382;-81
2022/01/27 02:59:07;;;;;;;;;36.75;30.75;;;;;3.14;74.54;102366.25;5016868;28;46337;-82
2022/01/27 03:01:33;;;;;;;;;49.50;40.25;;;;;3.13;74.68;102367.06;5016768;28;45285;-81
2022/01/27 03:03:58;;;;;;;;;48.00;43.00;;;;;3.12;74.73;102374.84;5031116;28;45405;-83
2022/01/27 03:06:23;;;;;;;;;48.50;40.00;;;;;3.15;75.16;102369.75;5037776;28;45273;-81
2022/01/27 03:08:49;;;;;;;;;41.00;38.25;;;;;3.03;74.50;102355.34;5025552;28;45585;-81
2022/01/27 03:11:31;;;;;;;;;48.50;43.00;;;;;3.10;75.42;102358.22;5019657;28;45347;-80
2022/01/27 03:13:57;;;;;;;;;37.50;32.00;;;;;3.22;74.41;102371.78;5018216;28;45523;-81
2022/01/27 03:16:22;;;;;;;;;49.25;39.00;;;;;3.20;74.94;102357.75;5020566;28;45268;-80
2022/01/27 03:18:47;;;;;;;;;48.25;33.75;;;;;3.21;74.58;102359.53;5019856;28;45341;-81
2022/01/27 03:21:16;;;;;;;;;47.50;39.25;;;;;3.25;74.52;102360.53;5015137;28;45375;-81
2022/01/27 03:23:41;;;;;;;;;45.25;35.00;;;;;3.25;73.99;102369.28;5014862;28;45363;-81
2022/01/27 03:26:06;;;;;;;;;42.75;33.00;;;;;3.24;74.45;102357.03;5014192;28;45647;-81
2022/01/27 03:28:32;;;;;;;;;36.50;34.00;;;;;3.26;74.56;102362.31;5014213;28;45414;-81
2022/01/27 03:30:58;;;;;;;;;40.75;38.00;;;;;3.19;74.87;102363.81;5014021;28;45429;-81
2022/01/27 03:33:24;;;;;;;;;37.25;33.75;;;;;3.18;74.94;102359.41;5015045;28;45553;-81
2022/01/27 03:35:49;;;;;;;;;30.50;24.75;;;;;3.14;74.21;102352.28;5015375;28;45477;-82
2022/01/27 03:38:14;;;;;;;;;57.50;39.75;;;;;3.11;74.88;102362.63;5016381;28;46672;-81
2022/01/27 03:40:40;;;;;;;;;36.50;29.50;;;;;3.11;74.47;102352.16;5019721;28;45499;-81
2022/01/27 03:43:08;;;;;;;;;42.50;37.00;;;;;3.14;74.88;102367.97;5016204;28;45416;-81
2022/01/27 03:45:34;;;;;;;;;38.75;37.25;;;;;3.03;75.22;102344.03;5015155;28;45526;-82
2022/01/27 03:48:00;;;;;;;;;35.50;30.25;;;;;3.10;74.95;102355.59;5011927;28;45816;-82
2022/01/27 03:50:25;;;;;;;;;41.00;34.00;;;;;3.08;75.52;102358.16;5002336;28;45483;-80
2022/01/27 03:52:51;;;;;;;;;49.00;36.00;;;;;3.00;75.36;102347.41;5022892;28;45366;-80
2022/01/27 03:55:16;;;;;;;;;26.75;13.50;;;;;3.05;74.80;102360.63;5036587;28;45446;-82
2022/01/27 03:57:42;;;;;;;;;33.25;26.50;;;;;3.08;74.75;102357.28;5032453;28;45518;-81
2022/01/27 04:00:08;;;;;;;;;47.25;37.75;;;;;3.05;75.39;102362.38;5008313;28;45570;-81
2022/01/27 04:02:39;;;;;;;;;37.75;31.75;;;;;3.03;75.07;102352.75;5007780;28;45475;-80
2022/01/27 04:05:07;;;;;;;;;42.75;37.00;;;;;3.05;75.71;102352.81;5014890;28;45427;-81
2022/01/27 04:07:32;;;;;;;;;45.25;36.50;;;;;3.01;75.63;102351.81;5016006;28;47435;-82
2022/01/27 04:09:58;;;;;;;;;55.25;39.50;;;;;3.00;75.09;102355.25;5017327;28;45362;-82
2022/01/27 04:12:23;;;;;;;;;41.25;29.50;;;;;2.97;75.20;102355.13;5020452;28;45391;-81
2022/01/27 04:14:48;;;;;;;;;46.75;40.50;;;;;2.96;75.65;102358.59;5016566;28;45459;-81
2022/01/27 04:17:14;;;;;;;;;53.00;43.25;;;;;2.96;75.20;102349.84;5012932;28;45495;-80
2022/01/27 04:19:39;;;;;;;;;36.50;26.50;;;;;2.94;75.94;102343.66;4998782;28;45442;-82
2022/01/27 04:22:05;;;;;;;;;43.50;37.00;;;;;2.94;76.15;102352.38;5018327;28;45446;-82
2022/01/27 04:24:30;;;;;;;;;36.50;32.25;;;;;2.93;75.52;102347.09;5017520;28;45364;-82
2022/01/27 04:27:05;;;;;;;;;36.75;33.50;;;;;2.86;75.61;102348.59;5014953;28;46257;-81
2022/01/27 04:29:43;;;;;;;;;42.25;33.75;;;;;2.84;75.58;102353.75;5027990;28;45390;-82
2022/01/27 04:32:10;;;;;;;;;42.75;38.50;;;;;2.83;75.68;102351.09;5015595;28;45376;-81
2022/01/27 04:34:39;;;;;;;;;35.00;31.25;;;;;2.84;76.58;102355.50;5015578;28;45449;-81
2022/01/27 04:37:06;;;;;;;;;42.25;34.50;;;;;2.82;76.22;102359.75;5015433;28;45450;-81
2022/01/27 04:39:41;;;;;;;;;35.00;30.75;;;;;2.78;76.24;102352.59;5019308;28;45288;-82
2022/01/27 04:42:18;;;;;;;;;45.00;31.25;;;;;2.78;76.82;102360.44;5023094;28;45352;-82
2022/01/27 04:44:59;;;;;;;;;47.25;38.50;;;;;2.73;76.37;102362.84;5020252;28;45408;-81
2022/01/27 04:47:33;;;;;;;;;32.00;27.50;;;;;2.74;76.74;102355.94;5018344;28;46610;-81
2022/01/27 04:49:59;;;;;;;;;42.25;33.50;;;;;2.78;76.51;102355.22;5033976;28;45492;-82
2022/01/27 04:52:28;;;;;;;;;53.25;41.75;;;;;2.80;76.52;102361.41;5016423;28;45529;-82
2022/01/27 04:55:05;;;;;;;;;51.25;36.75;;;;;2.80;76.98;102354.44;5017837;28;45285;-82
2022/01/27 04:57:31;;;;;;;;;45.25;37.75;;;;;2.72;75.90;102326.25;5015740;28;45459;-82
2022/01/27 04:59:57;;;;;;;;;44.25;34.00;;;;;2.80;76.30;102350.97;5017316;28;45501;-81
2022/01/27 05:02:33;;;;;;;;;51.00;41.50;;;;;2.77;76.84;102349.09;5025113;28;45809;-81
2022/01/27 05:04:59;;;;;;;;;38.25;31.00;;;;;2.81;76.65;102352.75;5039010;28;45414;-81
2022/01/27 05:07:24;;;;;;;;;49.25;31.50;;;;;2.82;75.98;102344.97;5012774;28;46335;-81
2022/01/27 05:09:56;;;;;;;;;48.75;35.75;;;;;2.84;76.15;102347.66;5020005;28;45341;-82
2022/01/27 05:12:33;;;;;;;;;44.50;33.75;;;;;2.84;76.89;102343.31;5024205;28;44863;-82
2022/01/27 05:14:59;;;;;;;;;28.75;25.50;;;;;2.84;76.25;102337.19;5020268;28;45429;-83
2022/01/27 05:17:25;;;;;;;;;28.25;22.00;;;;;2.84;76.77;102337.19;5017099;28;45379;-82
2022/01/27 05:19:51;;;;;;;;;44.50;31.75;;;;;2.83;76.24;102336.28;5001944;28;45490;-81
2022/01/27 05:22:16;;;;;;;;;31.75;23.75;;;;;2.87;76.71;102333.81;5015809;28;45594;-82
2022/01/27 05:24:42;;;;;;;;;36.50;33.25;;;;;2.89;75.84;102340.00;5017958;28;45553;-81
2022/01/27 05:27:07;;;;;;;;;37.50;28.75;;;;;2.90;76.25;102344.38;5016684;28;46605;-80
2022/01/27 05:29:33;;;;;;;;;38.75;29.50;;;;;2.92;76.05;102335.78;5003794;28;45409;-82
2022/01/27 05:31:58;;;;;;;;;46.50;36.25;;;;;2.92;76.25;102330.53;5013163;28;45662;-81
2022/01/27 05:34:23;;;;;;;;;37.25;27.25;;;;;2.95;76.24;102338.50;5016682;28;45579;-81
2022/01/27 05:36:49;;;;;;;;;30.75;23.75;;;;;2.98;75.52;102337.75;5015410;28;47004;-82
2022/01/27 05:39:14;;;;;;;;;45.75;33.75;;;;;3.00;75.53;102339.56;5007635;28;45315;-83
2022/01/27 05:41:39;;;;;;;;;39.50;33.50;;;;;3.02;75.42;102337.91;5012066;28;45453;-82
2022/01/27 05:44:05;;;;;;;;;54.00;36.75;;;;;3.05;75.28;102337.13;5024343;28;45642;-82
2022/01/27 05:46:30;;;;;;;;;32.75;27.50;;;;;3.03;75.31;102334.47;5018017;28;45970;-83
2022/01/27 05:48:56;;;;;;;;;39.00;35.50;;;;;3.03;75.87;102324.00;5020130;28;45427;-82
2022/01/27 05:51:21;;;;;;;;;44.25;35.75;;;;;3.07;75.19;102324.13;5017070;28;45557;-81
2022/01/27 05:53:47;;;;;;;;;39.25;31.25;;;;;3.11;75.71;102326.94;5020806;28;45430;-82
2022/01/27 05:56:13;;;;;;;;;40.50;36.00;;;;;3.09;74.69;102317.25;5019201;28;46605;-83
2022/01/27 05:58:38;;;;;;;;;27.75;21.25;;;;;3.12;75.43;102327.81;5016335;28;45394;-82
2022/01/27 06:01:04;;;;;;;;;45.00;26.25;;;;;3.06;75.43;102317.13;5022835;28;45519;-82
2022/01/27 06:03:29;;;;;;;;;35.50;28.50;;;;;3.02;75.21;102311.78;5029927;28;45485;-83
2022/01/27 06:05:54;;;;;;;;;26.00;21.75;;;;;3.13;74.68;102327.00;5016037;28;45566;-82
2022/01/27 06:08:20;;;;;;;;;39.75;32.50;;;;;3.10;75.11;102321.63;5015321;28;45482;-82
2022/01/27 06:10:47;;;;;;;;;30.00;24.75;;;;;3.13;75.21;102327.00;5004194;28;45555;-82
2022/01/27 06:13:12;;;;;;;;;44.50;36.75;;;;;3.08;75.00;102328.53;5020361;28;45493;-81
2022/01/27 06:15:38;;;;;;;;;28.50;24.25;;;;;3.13;74.84;102345.28;5022058;28;45458;-81
2022/01/27 06:18:03;;;;;;;;;50.75;37.25;;;;;3.17;75.04;102344.56;5017011;28;45360;-82
2022/01/27 06:20:29;;;;;;;;;36.00;33.00;;;;;3.17;74.51;102347.16;5016179;28;45476;-83
2022/01/27 06:22:57;;;;;;;;;36.00;32.50;;;;;3.19;74.68;102353.38;5016024;28;45634;-82
2022/01/27 06:25:24;;;;;;;;;34.50;29.75;;;;;3.16;74.97;102340.19;5018953;28;46272;-81
2022/01/27 06:27:49;;;;;;;;;43.00;34.75;;;;;3.19;74.45;102355.97;5015833;28;45465;-81
2022/01/27 06:30:14;;;;;;;;;34.75;26.50;;;;;3.19;74.89;102355.97;5016416;28;45419;-82
2022/01/27 06:32:41;;;;;;;;;33.25;27.50;;;;;3.19;74.30;102351.63;5004835;28;45291;-82
2022/01/27 06:35:07;;;;;;;;;32.00;26.00;;;;;3.22;74.42;102356.09;5016642;28;46632;-80
2022/01/27 06:37:33;;;;;;;;;33.00;27.25;;;;;3.22;74.61;102355.19;5019147;28;45411;-82
2022/01/27 06:39:59;;;;;;;;;34.00;30.50;;;;;3.25;74.32;102366.66;5003040;28;45280;-80
2022/01/27 06:42:27;;;;;;;;;38.75;27.50;;;;;3.11;74.66;102341.72;5025731;28;45611;-81
2022/01/27 06:44:53;;;;;;;;;32.25;27.75;;;;;3.14;73.85;102347.06;5036469;28;46367;-82
2022/01/27 06:47:18;;;;;;;;;52.00;32.00;;;;;3.25;74.96;102364.06;5035403;28;45506;-83
2022/01/27 06:49:44;;;;;;;;;37.00;26.75;;;;;3.27;74.69;102359.78;5023671;28;45618;-82
2022/01/27 06:52:09;;;;;;;;;35.00;25.50;;;;;3.25;74.15;102352.69;5028133;28;45487;-82
2022/01/27 06:54:35;;;;;;;;;43.75;36.00;;;;;3.25;73.99;102350.06;5004400;28;46244;-81
2022/01/27 06:57:01;;;;;;;;;36.25;31.75;;;;;3.25;73.96;102356.22;5011590;28;45441;-79
2022/01/27 06:59:26;;;;;;;;;33.00;27.75;;;;;3.30;73.93;102367.72;5010671;28;45589;-81
2022/01/27 07:01:51;;;;;;;;;45.50;35.50;;;;;3.29;74.27;102358.09;5007355;28;45681;-81
2022/01/27 07:04:17;;;;;;;;;40.50;32.25;;;;;3.27;74.00;102351.03;5017016;28;45470;-81
2022/01/27 07:06:42;;;;;;;;;37.50;32.75;;;;;3.29;74.07;102354.59;5016635;28;45455;-81
2022/01/27 07:09:08;;;;;;;;;35.00;30.00;;;;;3.29;74.08;102358.09;5015324;28;45442;-80
2022/01/27 07:11:33;;;;;;;;;36.75;31.25;;;;;3.33;74.34;102375.69;5025550;28;45438;-81
2022/01/27 07:13:58;;;;;;;;;36.50;29.50;;;;;3.34;73.79;102377.47;5016466;28;46223;-81
2022/01/27 07:16:24;;;;;;;;;36.50;30.50;;;;;3.34;73.78;102368.72;5016129;28;45342;-81
2022/01/27 07:18:52;;;;;;;;;17.75;8.25;;;;;3.35;73.52;102368.78;5022686;28;45427;-82
2022/01/27 07:21:19;;;;;;;;;39.00;33.00;;;;;3.12;74.33;102328.69;5027489;28;45482;-81
2022/01/27 07:23:46;;;;;;;;;36.50;33.50;;;;;3.35;73.91;102368.78;5015777;28;46446;-83
2022/01/27 07:26:11;;;;;;;;;33.00;24.50;;;;;3.37;73.37;102372.38;5015181;28;45437;-82
2022/01/27 07:28:37;;;;;;;;;42.50;31.50;;;;;3.36;73.82;102365.34;5015796;28;45359;-81
2022/01/27 07:31:03;;;;;;;;;35.75;30.00;;;;;3.33;73.58;102365.22;5015328;28;45583;-82
2022/01/27 07:33:29;;;;;;;;;34.50;29.25;;;;;3.33;73.96;102360.00;5018021;28;46068;-81
2022/01/27 07:35:54;;;;;;;;;33.25;27.00;;;;;3.35;74.06;102374.00;5018492;28;45390;-82
2022/01/27 07:38:22;;;;;;;;;41.75;36.00;;;;;3.34;74.00;102371.34;5015567;28;45300;-81
2022/01/27 07:40:48;;;;;;;;;27.50;26.50;;;;;3.33;73.88;102375.69;5007443;28;45492;-82
2022/01/27 07:43:13;;;;;;;;;39.50;30.00;;;;;3.35;74.01;102354.84;5014946;28;46341;-82
2022/01/27 07:45:38;;;;;;;;;34.50;29.00;;;;;3.36;73.84;102360.13;5017357;28;45545;-82
2022/01/27 07:48:05;;;;;;;;;35.50;29.50;;;;;3.37;73.41;102361.91;5021888;28;45411;-82
2022/01/27 07:50:31;;;;;;;;;23.25;16.25;;;;;3.41;74.03;102356.78;5003019;28;45457;-82
2022/01/27 07:52:58;;;;;;;;;34.50;28.00;;;;;3.43;73.84;102365.56;5017570;28;45927;-82
2022/01/27 07:55:23;;;;;;;;;29.75;27.25;;;;;3.43;72.85;102365.56;5015223;28;45381;-82
2022/01/27 07:57:49;;;;;;;;;38.25;24.50;;;;;3.43;73.33;102362.97;5025304;28;45534;-82
2022/01/27 08:00:15;;;;;;;;;30.00;21.25;;;;;3.40;73.34;102363.72;5004873;28;45472;-82
2022/01/27 08:02:41;;;;;;;;;36.25;27.25;;;;;3.43;73.37;102368.19;5021902;28;45941;-82
2022/01/27 08:05:06;;;;;;;;;53.25;32.50;;;;;3.44;73.79;102367.38;5013840;28;45468;-81
2022/01/27 08:07:32;;;;;;;;;44.25;36.00;;;;;3.44;73.25;102369.97;5014452;28;45419;-82
2022/01/27 08:09:58;;;;;;;;;31.00;28.75;;;;;3.44;73.17;102367.38;5024702;28;45453;-82
2022/01/27 08:12:24;;;;;;;;;39.50;28.75;;;;;3.42;73.77;102369.03;5017041;28;45547;-82
2022/01/27 08:14:49;;;;;;;;;36.75;30.50;;;;;3.42;73.50;102367.31;5025718;28;45398;-82
2022/01/27 08:17:17;;;;;;;;;46.50;37.75;;;;;3.45;73.35;102367.44;5029993;28;45267;-82
2022/01/27 08:19:42;;;;;;;;;42.00;33.50;;;;;3.47;73.61;102375.31;5027460;28;45340;-83
2022/01/27 08:22:08;;;;;;;;;39.25;31.75;;;;;3.44;73.09;102367.38;5038086;28;46407;-82
2022/01/27 08:24:34;;;;;;;;;39.00;31.50;;;;;3.45;73.70;102369.16;5033177;28;45462;-83
2022/01/27 08:27:01;;;;;;;;;40.25;29.50;;;;;3.47;73.85;102376.22;5018852;28;45462;-81
2022/01/27 08:29:33;;;;;;;;;35.50;29.50;;;;;3.49;73.60;102381.50;5023093;28;45771;-81
2022/01/27 08:32:02;;;;;;;;;37.50;30.00;;;;;3.49;73.24;102377.19;5015682;28;46206;-81
2022/01/27 08:34:32;;;;;;;;;47.75;34.00;;;;;3.55;73.89;102385.25;5038999;28;45347;-80
2022/01/27 08:37:00;;;;;;;;;31.50;29.25;;;;;3.57;73.33;102387.91;5022966;28;45466;-80
2022/01/27 08:39:26;;;;;;;;;44.75;28.75;;;;;3.58;73.08;102381.84;5016646;28;45559;-80
2022/01/27 08:41:52;;;;;;;;;47.75;28.00;;;;;3.61;73.51;102381.94;5029154;28;45480;-81
2022/01/27 08:44:17;;;;;;;;;32.75;23.25;;;;;3.59;73.37;102372.28;5026758;28;46045;-81
2022/01/27 08:46:43;;;;;;;;;34.75;27.75;;;;;3.57;73.41;102369.63;5002150;28;45464;-81
2022/01/27 08:49:09;;;;;;;;;28.25;16.00;;;;;3.62;73.48;102378.50;5032821;28;45456;-81
2022/01/27 08:51:36;;;;;;;;;33.00;31.25;;;;;3.64;73.25;102375.94;5018497;28;45571;-82
2022/01/27 08:54:01;;;;;;;;;32.00;29.25;;;;;3.66;73.11;102379.50;5018126;28;45371;-81
2022/01/27 08:56:27;;;;;;;;;31.75;29.25;;;;;3.68;73.14;102378.72;5017435;28;45374;-82
2022/01/27 08:58:55;;;;;;;;;33.25;27.50;;;;;3.65;73.25;102368.16;5017915;28;45396;-81
2022/01/27 09:01:22;;;;;;;;;40.75;29.25;;;;;3.74;73.15;102378.97;5016395;28;45362;-80
2022/01/27 09:03:48;;;;;;;;;42.50;33.25;;;;;3.79;73.16;102383.47;5017640;28;45509;-80
2022/01/27 09:06:14;;;;;;;;;38.25;30.75;;;;;3.78;72.51;102373.84;5024221;28;45423;-80
2022/01/27 09:08:40;;;;;;;;;27.50;17.50;;;;;3.81;73.08;102358.25;5022688;28;45562;-80
2022/01/27 09:11:06;;;;;;;;;33.50;25.00;;;;;3.83;72.56;102361.84;5021194;28;46008;-81
2022/01/27 09:13:31;;;;;;;;;42.50;37.50;;;;;3.89;73.07;102357.69;5025572;28;45485;-80
2022/01/27 09:15:59;;;;;;;;;41.75;28.50;;;;;3.92;72.40;102343.84;5018523;28;45479;-79
2022/01/27 09:18:25;;;;;;;;;40.00;34.50;;;;;3.93;72.65;102345.59;5031650;28;45589;-80
2022/01/27 09:20:50;;;;;;;;;39.50;29.00;;;;;3.94;72.56;102350.00;5023253;28;45390;-80
2022/01/27 09:23:16;;;;;;;;;39.25;27.25;;;;;3.95;72.49;102349.19;5025567;28;45439;-81
2022/01/27 09:25:48;;;;;;;;;35.00;29.25;;;;;4.02;72.45;102348.53;5016589;28;45564;-80
2022/01/27 09:28:15;;;;;;;;;36.75;31.50;;;;;4.09;72.12;102355.78;5024640;28;45492;-81
2022/01/27 09:30:42;;;;;;;;;33.25;29.25;;;;;4.19;71.94;102345.63;5025247;28;46197;-81
2022/01/27 09:33:09;;;;;;;;;32.00;22.00;;;;;4.27;72.04;102350.28;5030776;28;45593;-81
2022/01/27 09:35:34;;;;;;;;;34.50;27.50;;;;;4.28;71.33;102351.19;5015891;28;45521;-80
2022/01/27 09:38:00;;;;;;;;;39.75;33.25;;;;;4.37;71.24;102351.53;5017525;28;45585;-80
2022/01/27 09:40:28;;;;;;;;;46.50;34.25;;;;;4.41;71.29;102352.50;5030933;28;45473;-80
2022/01/27 09:42:54;;;;;;;;;33.75;29.50;;;;;4.49;71.10;102343.16;5027461;28;45532;-79
2022/01/27 09:45:22;;;;;;;;;35.00;32.50;;;;;4.64;71.00;102350.63;5020680;28;45376;-80
2022/01/27 09:47:55;;;;;;;;;39.00;29.00;;;;;4.75;70.60;102356.22;5025839;28;45609;-81
2022/01/27 09:50:48;;;;;;;;;45.50;32.75;;;;;4.78;70.28;102338.88;5016986;28;45408;-81
2022/01/27 09:53:13;;;;;;;;;37.50;27.25;;;;;4.91;70.11;102341.88;5023826;28;45563;-80
2022/01/27 09:55:39;;;;;;;;;20.00;14.75;;;;;5.06;69.46;102347.59;5019183;28;45788;-79
2022/01/27 09:58:08;;;;;;;;;36.25;32.75;;;;;5.14;69.49;102351.34;5023475;28;45645;-76
2022/01/27 10:00:35;;;;;;;;;43.75;37.50;;;;;5.22;69.34;102345.44;5017911;28;45645;-75
2022/01/27 10:03:04;;;;;;;;;34.00;30.00;;;;;5.29;69.05;102344.78;5026392;28;45529;-75
2022/01/27 10:05:31;;;;;;;;;42.00;35.75;;;;;5.38;68.66;102338.94;5026491;28;45526;-81
2022/01/27 10:08:10;;;;;;;;;51.25;36.50;;;;;5.49;68.11;102345.38;5025496;28;45439;-75
2022/01/27 10:10:43;;;;;;;;;38.50;31.00;;;;;5.57;68.44;102333.34;5009527;28;46048;-74
2022/01/27 10:13:11;;;;;;;;;38.00;28.75;;;;;5.63;68.30;102327.41;5012824;28;45538;-76
2022/01/27 10:15:41;;;;;;;;;39.25;32.50;;;;;5.82;68.05;102344.56;5024020;28;45277;-76
2022/01/27 10:18:24;;;;;;;;;25.25;21.50;;;;;5.97;66.95;102339.75;5015312;28;45578;-76
2022/01/27 10:21:03;;;;;;;;;36.75;31.50;;;;;6.09;66.74;102344.47;5014322;28;47112;-75
2022/01/27 10:23:33;;;;;;;;;34.00;27.25;;;;;6.13;66.93;102348.91;5022994;28;45580;-77
2022/01/27 10:26:22;;;;;;;;;40.50;37.50;;;;;6.30;66.49;102348.47;5026207;28;45581;-75
2022/01/27 10:29:06;;;;;;;;;40.00;31.75;;;;;6.43;65.76;102340.06;5016915;28;45415;-76
2022/01/27 10:31:38;;;;;;;;;37.25;30.50;;;;;6.55;65.19;102339.50;5022595;28;45482;-77
2022/01/27 10:34:07;;;;;;;;;36.75;30.75;;;;;6.59;64.84;102341.34;5024285;28;45408;-76
2022/01/27 10:36:40;;;;;;;;;31.75;29.75;;;;;6.62;65.70;102345.78;5021656;28;45521;-77
2022/01/27 10:39:17;;;;;;;;;25.75;22.75;;;;;6.65;65.23;102338.88;5022306;28;45563;-77
2022/01/27 10:42:08;;;;;;;;;28.75;26.00;;;;;6.67;65.12;102333.66;5020027;28;45481;-76
2022/01/27 10:44:38;;;;;;;;;33.50;27.00;;;;;6.63;65.24;102321.28;5031972;28;45415;-77
2022/01/27 10:47:14;;;;;;;;;30.25;23.50;;;;;6.62;65.26;102330.00;5020212;28;45519;-77
2022/01/27 10:49:54;;;;;;;;;33.75;26.50;;;;;6.55;64.90;102316.72;5020524;28;45521;-76
2022/01/27 10:52:35;;;;;;;;;33.00;32.00;;;;;6.46;65.38;102316.50;5017493;28;46253;-75
2022/01/27 10:55:11;;;;;;;;;36.50;34.00;;;;;6.39;65.40;102311.94;5018285;28;45473;-76
2022/01/27 10:57:37;;;;;;;;;32.25;27.50;;;;;6.43;64.91;102313.81;5019576;28;45502;-76
2022/01/27 11:00:23;;;;;;;;;25.25;22.25;;;;;6.45;66.08;102317.34;5022577;28;45485;-76
2022/01/27 11:03:03;;;;;;;;;34.25;24.25;;;;;6.43;65.84;102321.69;5018562;28;45529;-76
2022/01/27 11:05:31;;;;;;;;;37.25;30.00;;;;;6.38;65.88;102315.44;5024847;28;45451;-76
2022/01/27 11:07:58;;;;;;;;;26.00;15.00;;;;;6.35;65.85;102320.63;5005767;28;45465;-77
2022/01/27 11:10:24;;;;;;;;;35.75;25.00;;;;;6.27;65.86;102316.88;5023858;28;45414;-76
2022/01/27 11:12:50;;;;;;;;;23.50;18.00;;;;;6.29;66.18;102328.34;5023451;28;46719;-76
2022/01/27 11:15:19;;;;;;;;;30.50;24.75;;;;;6.28;66.05;102332.69;5021355;28;45461;-77
2022/01/27 11:17:46;;;;;;;;;30.25;25.00;;;;;6.30;66.00;102330.09;5020205;28;45811;-76
2022/01/27 11:20:28;;;;;;;;;27.75;24.50;;;;;6.32;65.90;102334.56;5019983;28;45384;-77
2022/01/27 11:27:58;;;;;;;;;36.75;26.00;;;;;6.32;65.78;102325.78;5017027;28;45397;-76
2022/01/27 11:31:06;;;;;;;;;30.75;22.25;;;;;6.37;66.31;102330.28;5023657;28;45569;-81
2022/01/27 11:33:33;;;;;;;;;30.50;24.50;;;;;6.37;65.75;102319.78;5018878;28;45913;-80
2022/01/27 11:36:15;;;;;;;;;39.25;31.75;;;;;6.39;66.04;102317.19;5027151;28;45582;-82
2022/01/27 11:38:43;;;;;;;;;38.50;33.25;;;;;6.46;66.10;102315.63;5010689;28;45608;-81
2022/01/27 11:41:42;;;;;;;;;36.00;27.75;;;;;6.48;65.90;102303.41;5015476;28;45544;-81
2022/01/27 11:44:32;;;;;;;;;30.75;25.25;;;;;6.49;66.09;102303.44;5009079;28;46296;-81
2022/01/27 11:47:11;;;;;;;;;43.25;30.50;;;;;6.52;66.64;102307.91;5036483;28;45430;-81
2022/01/27 11:49:46;;;;;;;;;23.75;18.75;;;;;6.56;66.29;102294.88;5028283;28;45498;-81
2022/01/27 11:52:19;;;;;;;;;40.50;31.50;;;;;6.60;66.02;102297.56;5025169;28;45369;-81
2022/01/27 11:54:46;;;;;;;;;25.75;22.00;;;;;6.65;65.87;102294.19;5019908;28;45480;-81
2022/01/27 11:57:38;;;;;;;;;34.25;21.50;;;;;6.66;66.69;102284.56;5022568;28;45402;-82
2022/01/27 12:00:16;;;;;;;;;33.25;28.50;;;;;6.75;66.44;102271.63;5014214;28;45475;-81
2022/01/27 12:02:56;;;;;;;;;43.00;30.50;;;;;6.90;65.87;102278.97;5016107;28;45502;-81
2022/01/27 12:05:25;;;;;;;;;35.25;28.50;;;;;6.96;65.63;102283.50;5017117;28;45505;-82